createdAt,value
2023-03-15T00:02:41.332Z,4.80
2023-03-15T00:06:42.781Z,4.60
2023-03-15T00:10:46.422Z,4.00
2023-03-15T00:14:47.407Z,4.20
2023-03-15T00:18:48.661Z,3.90
2023-03-15T00:22:49.635Z,4.80
2023-03-15T00:26:50.657Z,4.70
2023-03-15T00:31:12.564Z,4.70
2023-03-15T00:35:14.189Z,4.20
2023-03-15T00:39:15.473Z,5.20
2023-03-15T00:43:17.251Z,5.20
2023-03-15T00:47:18.254Z,5.10
2023-03-15T00:51:21.790Z,4.50
2023-03-15T00:55:22.994Z,5.10
2023-03-15T00:59:24.148Z,5.30
2023-03-15T01:03:25.161Z,5.50
2023-03-15T01:07:26.151Z,5.50
2023-03-15T01:11:27.940Z,5.40
2023-03-15T01:15:29.279Z,4.80
2023-03-15T01:19:30.405Z,4.90
2023-03-15T01:23:31.615Z,5.20
2023-03-15T01:27:32.796Z,5.00
2023-03-15T01:31:33.899Z,4.50
2023-03-15T01:35:35.015Z,4.80
2023-03-15T01:39:36.021Z,5.10
2023-03-15T01:43:37.187Z,5.20
2023-03-15T01:47:38.447Z,5.10
2023-03-15T01:51:52.238Z,4.60
2023-03-15T01:55:54.365Z,4.50
2023-03-15T01:59:59.348Z,4.40
2023-03-15T02:04:04.302Z,4.80
2023-03-15T02:08:08.110Z,4.20
2023-03-15T02:12:11.477Z,4.40
2023-03-15T02:16:12.869Z,4.70
2023-03-15T02:20:26.692Z,4.30
2023-03-15T02:24:42.472Z,3.80
2023-03-15T02:28:43.839Z,3.70
2023-03-15T02:32:45.144Z,4.30
2023-03-15T02:36:46.158Z,4.60
2023-03-15T02:40:47.838Z,4.40
2023-03-15T02:44:50.947Z,4.60
2023-03-15T02:48:53.533Z,4.70
2023-03-15T02:52:54.494Z,4.70
2023-03-15T02:56:55.501Z,4.60
2023-03-15T03:00:56.492Z,4.60
2023-03-15T03:04:57.424Z,4.60
2023-03-15T03:08:58.385Z,4.10
2023-03-15T03:12:59.359Z,4.10
2023-03-15T03:17:00.965Z,4.20
2023-03-15T03:21:06.805Z,4.60
2023-03-15T03:25:11.825Z,5.00
2023-03-15T03:29:15.537Z,5.20
2023-03-15T03:33:16.499Z,4.70
2023-03-15T03:37:18.831Z,4.00
2023-03-15T03:41:20.771Z,3.60
2023-03-15T03:45:21.866Z,3.80
2023-03-15T03:49:23.085Z,3.60
2023-03-15T03:53:24.236Z,2.80
2023-03-15T03:57:25.347Z,3.30
2023-03-15T04:01:26.654Z,4.10
2023-03-15T04:05:28.497Z,3.10
2023-03-15T04:09:29.895Z,3.80
2023-03-15T04:13:31.000Z,3.80
2023-03-15T04:17:32.074Z,2.90
2023-03-15T04:21:33.864Z,2.90
2023-03-15T04:25:34.814Z,2.40
2023-03-15T04:29:35.908Z,2.70
2023-03-15T04:33:36.916Z,1.90
2023-03-15T04:37:38.059Z,2.10
2023-03-15T04:41:39.204Z,2.10
2023-03-15T04:45:40.210Z,2.50
2023-03-15T04:49:41.156Z,2.80
2023-03-15T04:53:42.397Z,2.60
2023-03-15T04:57:43.330Z,3.60
2023-03-15T05:01:44.471Z,3.00
2023-03-15T05:05:45.524Z,3.20
2023-03-15T05:09:47.356Z,3.80
2023-03-15T05:13:48.462Z,4.10
2023-03-15T05:17:49.414Z,3.00
2023-03-15T05:21:50.391Z,3.20
2023-03-15T05:25:53.338Z,3.70
2023-03-15T05:29:54.354Z,3.20
2023-03-15T05:33:55.432Z,4.00
2023-03-15T05:37:56.366Z,3.40
2023-03-15T05:41:57.390Z,3.70
2023-03-15T05:45:58.407Z,3.80
2023-03-15T05:49:59.463Z,3.60
2023-03-15T05:54:00.409Z,2.90
2023-03-15T05:58:01.429Z,3.70
2023-03-15T06:02:03.317Z,3.80
2023-03-15T06:06:04.614Z,4.30
2023-03-15T06:10:06.635Z,4.60
2023-03-15T06:14:07.770Z,5.00
2023-03-15T06:18:09.152Z,3.90
2023-03-15T06:22:10.408Z,4.10
2023-03-15T06:26:11.510Z,3.50
2023-03-15T06:30:15.382Z,4.00
2023-03-15T06:34:16.761Z,3.40
2023-03-15T06:38:17.913Z,3.20
2023-03-15T06:42:19.284Z,2.70
2023-03-15T06:46:20.359Z,3.40
2023-03-15T06:50:21.538Z,3.40
2023-03-15T06:54:23.310Z,3.20
2023-03-15T06:58:24.456Z,3.70
2023-03-15T07:02:25.636Z,3.60
2023-03-15T07:06:27.809Z,3.00
2023-03-15T07:10:28.942Z,3.50
2023-03-15T07:14:29.925Z,3.40
2023-03-15T07:18:33.846Z,3.70
2023-03-15T07:22:35.061Z,3.50
2023-03-15T07:26:36.057Z,3.20
2023-03-15T07:30:37.312Z,3.90
2023-03-15T07:34:38.318Z,3.80
2023-03-15T07:38:41.367Z,4.00
2023-03-15T07:42:42.904Z,3.50
2023-03-15T07:46:44.107Z,4.40
2023-03-15T07:50:46.022Z,4.50
2023-03-15T07:54:47.196Z,3.60
2023-03-15T07:58:48.296Z,3.70
2023-03-15T08:02:50.044Z,3.60
2023-03-15T08:06:51.088Z,2.70
2023-03-15T08:10:52.275Z,3.60
2023-03-15T08:14:53.706Z,4.10
2023-03-15T08:18:54.734Z,4.40
2023-03-15T08:22:55.800Z,3.00
2023-03-15T08:26:56.835Z,3.70
2023-03-15T08:30:58.061Z,3.30
2023-03-15T08:34:59.270Z,3.40
2023-03-15T08:39:00.576Z,3.10
2023-03-15T08:43:01.876Z,3.40
2023-03-15T08:47:04.520Z,4.00
2023-03-15T08:51:06.532Z,4.30
2023-03-15T08:55:08.480Z,5.20
2023-03-15T08:59:12.775Z,4.70
2023-03-15T09:03:14.173Z,3.70
2023-03-15T09:07:15.326Z,4.80
2023-03-15T09:11:16.544Z,4.10
2023-03-15T09:15:18.918Z,4.10
2023-03-15T09:19:20.096Z,4.30
2023-03-15T09:23:21.435Z,4.30
2023-03-15T09:27:22.611Z,5.00
2023-03-15T09:31:24.494Z,4.90
2023-03-15T09:35:26.440Z,4.60
2023-03-15T09:39:27.453Z,5.00
2023-03-15T09:43:44.476Z,5.30
2023-03-15T09:47:52.254Z,5.30
2023-03-15T09:52:00.245Z,4.40
2023-03-15T09:56:01.466Z,4.60
2023-03-15T10:00:06.966Z,5.30
2023-03-15T10:04:24.306Z,6.00
2023-03-15T10:08:26.299Z,5.30
2023-03-15T10:12:30.696Z,4.50
2023-03-15T10:16:44.952Z,5.20
2023-03-15T10:20:50.129Z,6.00
2023-03-15T10:25:13.464Z,5.30
2023-03-15T10:29:17.943Z,6.20
2023-03-15T10:33:37.413Z,6.10
2023-03-15T10:37:38.580Z,6.50
2023-03-15T10:41:45.603Z,6.40
2023-03-15T10:46:05.631Z,6.70
2023-03-15T10:50:08.638Z,6.70
2023-03-15T10:54:16.649Z,7.30
2023-03-15T10:58:21.344Z,6.30
2023-03-15T11:02:24.561Z,7.30
2023-03-15T11:06:28.456Z,6.50
2023-03-15T11:10:33.243Z,6.00
2023-03-15T11:14:43.103Z,6.60
2023-03-15T11:18:57.304Z,6.60
2023-03-15T11:23:00.067Z,6.50
2023-03-15T11:27:04.464Z,6.60
2023-03-15T11:31:06.057Z,6.50
2023-03-15T11:35:23.183Z,6.50
2023-03-15T11:39:36.925Z,6.00
2023-03-15T11:43:44.510Z,7.00
2023-03-15T11:47:52.410Z,6.30
2023-03-15T11:51:55.634Z,7.30
2023-03-15T11:55:58.010Z,6.80
2023-03-15T12:00:19.521Z,7.00
2023-03-15T12:04:30.550Z,7.00
2023-03-15T12:08:53.178Z,7.20
2023-03-15T12:12:58.061Z,8.20
2023-03-15T12:17:27.962Z,9.00
2023-03-15T12:21:35.712Z,7.70
2023-03-15T12:25:54.123Z,8.20
2023-03-15T12:29:50.373Z,7.70
2023-03-15T12:33:58.024Z,7.80
2023-03-15T12:42:14.671Z,7.60
2023-03-15T12:46:42.656Z,7.50
2023-03-15T12:50:47.624Z,7.40
2023-03-15T12:54:55.412Z,8.70
2023-03-15T12:59:01.553Z,8.60
2023-03-15T13:03:21.478Z,9.70
2023-03-15T13:07:30.528Z,9.10
2023-03-15T13:12:07.634Z,8.20
2023-03-15T13:16:28.062Z,8.50
2023-03-15T13:20:41.985Z,6.80
2023-03-15T13:25:12.761Z,7.10
2023-03-15T13:29:20.426Z,6.20
2023-03-15T13:33:27.452Z,7.40
2023-03-15T13:37:31.387Z,9.90
2023-03-15T13:41:32.390Z,10.30
2023-03-15T13:45:37.130Z,10.30
2023-03-15T13:49:38.470Z,10.80
2023-03-15T13:53:49.606Z,10.80
2023-03-15T13:57:43.144Z,11.10
2023-03-15T14:01:44.283Z,12.20
2023-03-15T14:05:47.885Z,10.90
2023-03-15T14:09:49.043Z,11.20
2023-03-15T14:13:58.786Z,11.50
2023-03-15T14:18:12.740Z,10.30
2023-03-15T14:22:16.953Z,12.30
2023-03-15T14:26:21.752Z,12.50
2023-03-15T14:30:24.878Z,11.30
2023-03-15T14:34:38.737Z,9.20
2023-03-15T14:38:40.453Z,8.70
2023-03-15T14:42:43.062Z,7.00
2023-03-15T14:46:44.122Z,6.30
2023-03-15T14:50:45.446Z,7.70
2023-03-15T14:54:49.272Z,7.50
2023-03-15T14:58:52.273Z,7.70
2023-03-15T15:02:55.360Z,7.40
2023-03-15T15:06:57.382Z,7.70
2023-03-15T15:10:59.256Z,8.20
2023-03-15T15:15:00.221Z,7.90
2023-03-15T15:19:01.307Z,8.30
2023-03-15T15:23:02.851Z,8.60
2023-03-15T15:27:04.258Z,8.80
2023-03-15T15:31:06.616Z,8.30
2023-03-15T15:35:08.491Z,8.70
2023-03-15T15:39:25.673Z,8.30
2023-03-15T15:43:26.705Z,9.00
2023-03-15T15:47:27.811Z,9.10
2023-03-15T15:51:33.383Z,8.90
2023-03-15T15:55:36.343Z,8.80
2023-03-15T15:59:37.480Z,8.40
2023-03-15T16:03:38.983Z,8.30
2023-03-15T16:07:40.596Z,8.30
2023-03-15T16:11:42.246Z,8.10
2023-03-15T16:15:43.508Z,8.90
2023-03-15T16:19:44.663Z,9.00
2023-03-15T16:23:49.655Z,8.60
2023-03-15T16:27:52.164Z,7.90
2023-03-15T16:31:53.783Z,8.20
2023-03-15T16:35:55.853Z,9.20
2023-03-15T16:40:00.893Z,9.00
2023-03-15T16:44:02.080Z,8.30
2023-03-15T16:48:03.648Z,8.20
2023-03-15T16:52:07.408Z,8.90
2023-03-15T16:56:11.684Z,8.70
2023-03-15T17:00:16.645Z,8.70
2023-03-15T17:04:17.759Z,8.80
2023-03-15T17:08:20.427Z,8.60
2023-03-15T17:12:25.265Z,8.10
2023-03-15T17:16:26.946Z,8.00
2023-03-15T17:20:28.964Z,7.90
2023-03-15T17:24:31.543Z,8.20
2023-03-15T17:28:32.781Z,8.40
2023-03-15T17:32:34.141Z,8.10
2023-03-15T17:36:37.789Z,8.10
2023-03-15T17:40:39.375Z,7.70
2023-03-15T17:44:41.367Z,7.40
2023-03-15T17:48:42.722Z,7.20
2023-03-15T17:52:45.942Z,7.30
2023-03-15T17:56:47.093Z,7.40
2023-03-15T18:00:50.777Z,6.90
2023-03-15T18:04:52.311Z,7.00
2023-03-15T18:08:53.751Z,7.00
2023-03-15T18:12:54.910Z,6.70
2023-03-15T18:16:56.503Z,6.90
2023-03-15T18:20:57.636Z,7.00
2023-03-15T18:24:59.413Z,6.50
2023-03-15T18:29:01.388Z,5.70
2023-03-15T18:33:04.479Z,5.90
2023-03-15T18:37:05.537Z,6.20
2023-03-15T18:41:20.665Z,6.30
2023-03-15T18:45:28.604Z,6.00
2023-03-15T18:49:29.804Z,5.80
2023-03-15T18:53:31.127Z,5.90
2023-03-15T18:57:32.146Z,5.30
2023-03-15T19:01:33.883Z,5.80
2023-03-15T19:05:36.673Z,5.10
2023-03-15T19:09:37.898Z,5.00
2023-03-15T19:13:39.161Z,5.50
2023-03-15T19:17:41.599Z,5.80
2023-03-15T19:21:42.784Z,5.00
2023-03-15T19:25:44.719Z,4.60
2023-03-15T19:29:46.075Z,5.30
2023-03-15T19:33:47.340Z,5.30
2023-03-15T19:37:48.650Z,5.40
2023-03-15T19:41:49.930Z,5.00
2023-03-15T19:45:51.540Z,5.00
2023-03-15T19:49:54.321Z,4.50
2023-03-15T19:53:56.051Z,4.60
2023-03-15T19:57:57.425Z,5.00
2023-03-15T20:01:58.785Z,5.10
2023-03-15T20:06:04.980Z,4.90
2023-03-15T20:10:08.362Z,4.80
2023-03-15T20:14:09.548Z,5.00
2023-03-15T20:18:12.780Z,4.60
2023-03-15T20:22:14.546Z,4.70
2023-03-15T20:26:17.520Z,5.20
2023-03-15T20:30:20.854Z,5.10
2023-03-15T20:34:22.294Z,4.90
2023-03-15T20:38:23.513Z,4.70
2023-03-15T20:42:24.627Z,4.70
2023-03-15T20:46:25.904Z,4.40
2023-03-15T20:50:26.847Z,3.70
2023-03-15T20:54:28.015Z,4.10
2023-03-15T20:58:29.543Z,4.10
2023-03-15T21:02:31.032Z,4.40
2023-03-15T21:06:32.898Z,4.30
2023-03-15T21:10:33.904Z,4.20
2023-03-15T21:14:35.168Z,4.00
2023-03-15T21:18:37.153Z,2.70
2023-03-15T21:22:38.078Z,3.50
2023-03-15T21:26:39.201Z,3.60
2023-03-15T21:30:40.434Z,2.70
2023-03-15T21:34:41.394Z,3.60
2023-03-15T21:38:42.545Z,3.90
2023-03-15T21:42:45.450Z,4.20
2023-03-15T21:46:46.587Z,3.90
2023-03-15T21:50:51.131Z,3.30
2023-03-15T21:54:53.435Z,3.60
2023-03-15T21:58:55.105Z,3.50
2023-03-15T22:02:56.274Z,3.60
2023-03-15T22:06:57.383Z,3.80
2023-03-15T22:10:58.722Z,4.10
2023-03-15T22:15:05.627Z,4.00
2023-03-15T22:19:03.323Z,3.60
2023-03-15T22:23:04.928Z,3.60
2023-03-15T22:27:06.172Z,3.90
2023-03-15T22:31:10.919Z,3.80
2023-03-15T22:35:13.330Z,3.50
2023-03-15T22:39:14.526Z,3.40
2023-03-15T22:43:15.942Z,3.60
2023-03-15T22:47:16.890Z,3.70
2023-03-15T22:51:17.988Z,3.70
2023-03-15T22:55:20.214Z,3.30
2023-03-15T22:59:23.261Z,3.10
2023-03-15T23:03:25.612Z,3.60
2023-03-15T23:07:26.577Z,3.40
2023-03-15T23:11:27.816Z,3.40
2023-03-15T23:15:28.898Z,3.30
2023-03-15T23:19:34.653Z,3.10
2023-03-15T23:23:38.177Z,3.00
2023-03-15T23:27:39.940Z,2.90
2023-03-15T23:31:42.359Z,2.90
2023-03-15T23:35:43.650Z,2.90
2023-03-15T23:39:45.198Z,2.60
2023-03-15T23:43:46.273Z,2.40
2023-03-15T23:47:47.236Z,2.30
2023-03-15T23:51:48.275Z,2.80
2023-03-15T23:55:50.605Z,3.30
2023-03-15T23:59:52.143Z,3.20
